Time;durP1;ratioP1;P1;durP2;ratioP2;P2;SDS_P1;SDS_P2;PMS_P1;PMS_P2;Temp;Humidity;BMP_temperature;BMP_pressure;BME280_temperature;BME280_humidity;BME280_pressure;Samples;Min_cycle;Max_cycle;Signal;HPM_P1;HPM_P2
2023/01/13 00:02:04;;;;;;;8.60;4.45;;;;;;;4.90;100.00;100925.75;5011593;28;20400;-80
2023/01/13 00:04:30;;;;;;;8.90;4.60;;;;;;;4.79;100.00;100877.34;5011822;28;20084;-79
2023/01/13 00:06:55;;;;;;;10.10;5.82;;;;;;;5.12;100.00;100925.53;5011761;28;20026;-78
2023/01/13 00:09:21;;;;;;;8.95;5.00;;;;;;;4.80;100.00;100870.56;5009209;28;20124;-79
2023/01/13 00:11:46;;;;;;;8.80;4.97;;;;;;;4.95;100.00;100909.06;5010750;28;20034;-80
2023/01/13 00:14:12;;;;;;;8.68;4.70;;;;;;;5.11;100.00;100928.88;5011900;28;20033;-81
2023/01/13 00:16:37;;;;;;;9.57;5.40;;;;;;;5.00;100.00;100907.69;5007021;28;20137;-79
2023/01/13 00:19:03;;;;;;;10.82;5.05;;;;;;;5.06;100.00;100932.78;5011437;28;20112;-78
2023/01/13 00:21:28;;;;;;;8.02;5.30;;;;;;;4.86;100.00;100909.34;5008091;28;20038;-77
2023/01/13 00:23:54;;;;;;;7.28;4.32;;;;;;;4.98;100.00;100929.72;5011675;28;20088;-81
2023/01/13 00:26:22;;;;;;;15.15;4.70;;;;;;;4.96;100.00;100936.41;5009849;28;20029;-78
2023/01/13 00:28:48;;;;;;;9.82;4.82;;;;;;;4.90;100.00;100913.88;5005588;28;20057;-79
2023/01/13 00:31:19;;;;;;;9.82;5.10;;;;;;;4.49;100.00;100846.38;4999635;28;20487;-78
2023/01/13 00:33:45;;;;;;;8.10;4.20;;;;;;;4.69;100.00;100873.28;5008588;28;20045;-76
2023/01/13 00:36:13;;;;;;;7.63;4.90;;;;;;;4.65;100.00;100867.88;5009138;28;20045;-75
2023/01/13 00:38:41;;;;;;;11.20;4.85;;;;;;;4.61;100.00;100835.19;5006055;28;20073;-77
2023/01/13 00:41:09;;;;;;;9.05;4.50;;;;;;;5.16;100.00;100924.97;4993460;28;20095;-79
2023/01/13 00:43:36;;;;;;;9.15;4.43;;;;;;;5.17;100.00;100916.47;5000725;28;20181;-79
2023/01/13 00:46:02;;;;;;;12.20;4.35;;;;;;;5.21;100.00;100913.34;5020382;28;20098;-80
2023/01/13 00:48:29;;;;;;;11.75;4.32;;;;;;;5.39;100.00;100926.44;5012759;28;20042;-80
2023/01/13 00:50:55;;;;;;;10.50;4.50;;;;;;;5.11;100.00;100878.59;5029333;28;20076;-80
2023/01/13 00:53:20;;;;;;;7.00;4.15;;;;;;;5.46;100.00;100925.19;5029086;28;20041;-80
2023/01/13 00:55:46;;;;;;;8.10;4.07;;;;;;;5.28;100.00;100895.06;5020413;28;20040;-80
2023/01/13 00:58:14;;;;;;;9.45;4.43;;;;;;;5.43;100.00;100923.34;5009685;28;20447;-81
2023/01/13 01:00:40;;;;;;;6.70;4.43;;;;;;;5.51;100.00;100923.81;5011197;28;20443;-80
2023/01/13 01:03:08;;;;;;;10.85;3.90;;;;;;;5.50;100.00;100920.34;5011679;28;20530;-80
2023/01/13 01:05:33;;;;;;;8.55;4.65;;;;;;;5.48;100.00;100926.16;5011768;28;20022;-81
2023/01/13 01:07:59;;;;;;;7.28;4.30;;;;;;;5.38;100.00;100908.44;4992325;28;20073;-80
2023/01/13 01:10:24;;;;;;;6.78;4.28;;;;;;;5.49;100.00;100917.69;4992036;28;20030;-80
2023/01/13 01:12:50;;;;;;;13.57;6.68;;;;;;;5.34;100.00;100884.31;4991908;28;20030;-81
2023/01/13 01:15:16;;;;;;;10.50;4.90;;;;;;;5.35;100.00;100894.63;4990844;28;20026;-81
2023/01/13 01:17:41;;;;;;;8.88;4.70;;;;;;;5.25;100.00;100874.34;4992080;28;20029;-81
2023/01/13 01:20:07;;;;;;;11.60;4.72;;;;;;;5.28;100.00;100871.09;4991793;28;20034;-81
2023/01/13 01:22:33;;;;;;;10.77;5.00;;;;;;;5.33;100.00;100885.09;4991800;28;20026;-81
2023/01/13 01:24:58;;;;;;;10.23;4.95;;;;;;;5.01;100.00;100822.47;4992002;28;20027;-80
2023/01/13 01:27:24;;;;;;;12.13;4.72;;;;;;;5.45;100.00;100896.13;4991983;28;20520;-81
2023/01/13 01:29:49;;;;;;;9.70;4.82;;;;;;;5.51;100.00;100911.00;4991611;28;20181;-81
2023/01/13 01:32:15;;;;;;;13.30;4.93;;;;;;;4.94;100.00;100813.50;4991816;28;20033;-81
2023/01/13 01:34:40;;;;;;;7.90;4.70;;;;;;;5.38;100.00;100870.91;4991805;28;20022;-80
2023/01/13 01:37:06;;;;;;;9.82;4.95;;;;;;;5.07;100.00;100820.31;4991579;28;20030;-80
2023/01/13 01:39:31;;;;;;;14.38;6.32;;;;;;;5.51;100.00;100895.66;4991862;28;20037;-81
2023/01/13 01:44:40;;;;;;;14.48;5.82;;;;;;;5.57;100.00;100897.69;4991527;28;20041;-77
2023/01/13 01:47:06;;;;;;;19.02;7.10;;;;;;;5.34;100.00;100877.50;4991685;28;20141;-77
2023/01/13 01:49:35;;;;;;;14.20;5.70;;;;;;;5.33;100.00;100875.75;4991290;28;20487;-77
2023/01/13 01:52:13;;;;;;;14.60;5.53;;;;;;;5.47;100.00;100894.56;4991398;28;20030;-77
2023/01/13 01:55:13;;;;;;;12.43;5.47;;;;;;;5.54;100.00;100894.97;5006570;28;20034;-77
2023/01/13 01:57:44;;;;;;;11.90;5.45;;;;;;;5.59;100.00;100898.69;4991455;28;20041;-78
2023/01/13 02:00:11;;;;;;;12.80;5.55;;;;;;;5.64;100.00;100893.06;4991444;28;20109;-77
2023/01/13 02:02:37;;;;;;;16.55;5.85;;;;;;;5.63;100.00;100893.88;4991170;28;20492;-78
2023/01/13 02:05:02;;;;;;;19.38;7.10;;;;;;;5.51;100.00;100864.91;4991401;28;20113;-79
2023/01/13 02:07:31;;;;;;;15.35;6.10;;;;;;;5.48;100.00;100880.06;4991248;28;20026;-78
2023/01/13 02:10:01;;;;;;;14.63;5.00;;;;;;;4.94;100.00;100833.09;4991134;28;20027;-78
2023/01/13 02:12:31;;;;;;;12.43;4.60;;;;;;;4.76;100.00;100812.28;4990938;28;20497;-78
2023/01/13 02:15:34;;;;;;;12.48;4.97;;;;;;;5.21;100.00;100892.88;4991057;28;20035;-77
2023/01/13 02:18:15;;;;;;;8.07;4.82;;;;;;;5.15;100.00;100892.47;4969269;28;20039;-78
2023/01/13 02:21:07;;;;;;;7.75;4.35;;;;;;;5.04;100.00;100878.09;4969557;28;20214;-78
2023/01/13 02:27:06;;;;;;;9.50;4.80;;;;;;;4.91;100.00;100889.16;4969333;28;20037;-77
2023/01/13 02:32:50;;;;;;;5.40;3.90;;;;;;;4.79;100.00;100879.03;4969124;28;19925;-79
2023/01/13 02:35:42;;;;;;;7.72;4.38;;;;;;;4.61;100.00;100883.78;4969087;28;20480;-80
2023/01/13 02:38:12;;;;;;;10.85;4.80;;;;;;;4.05;100.00;100809.34;4893432;29;20059;-80
2023/01/13 02:40:49;;;;;;;9.98;4.90;;;;;;;4.56;100.00;100900.47;4896702;29;20060;-81
2023/01/13 02:46:30;;;;;;;7.28;4.45;;;;;;;4.56;100.00;100897.91;4896419;29;20068;-79
2023/01/13 02:49:04;;;;;;;7.78;4.40;;;;;;;4.51;100.00;100897.59;4896505;29;20074;-79
2023/01/13 02:51:31;;;;;;;7.88;4.20;;;;;;;4.32;100.00;100870.78;4896464;29;20044;-79
2023/01/13 02:54:06;;;;;;;10.23;5.65;;;;;;;4.49;100.00;100894.94;4904723;29;20149;-79
2023/01/13 02:56:36;;;;;;;12.43;6.47;;;;;;;4.45;100.00;100903.19;4934167;29;20178;-79
2023/01/13 02:59:02;;;;;;;11.48;6.10;;;;;;;4.48;100.00;100905.06;4934301;29;20561;-79
2023/01/13 03:01:27;;;;;;;11.00;5.30;;;;;;;4.18;100.00;100851.94;4934057;29;20067;-80
2023/01/13 03:03:53;;;;;;;7.38;4.03;;;;;;;4.32;100.00;100875.88;4934127;29;20486;-80
2023/01/13 03:06:45;;;;;;;9.32;4.78;;;;;;;4.57;100.00;100903.13;4934205;29;20039;-79
2023/01/13 03:09:28;;;;;;;10.00;4.07;;;;;;;4.58;100.00;100904.91;4918061;29;20106;-80
2023/01/13 03:12:09;;;;;;;6.15;3.20;;;;;;;4.62;100.00;100899.25;4934125;29;20063;-80
2023/01/13 03:15:03;;;;;;;6.15;3.58;;;;;;;4.18;100.00;100818.72;4943097;28;20566;-80
2023/01/13 03:17:38;;;;;;;5.28;3.03;;;;;;;4.26;100.00;100824.38;4993069;28;20058;-80
2023/01/13 03:20:17;;;;;;;4.78;2.88;;;;;;;4.74;100.00;100911.09;4994262;28;20026;-80
2023/01/13 03:23:19;;;;;;;6.55;2.65;;;;;;;4.82;100.00;100903.13;4994338;28;20053;-80
2023/01/13 03:25:59;;;;;;;4.38;2.40;;;;;;;4.68;100.00;100868.94;4955888;28;20125;-81
2023/01/13 03:28:30;;;;;;;3.92;2.42;;;;;;;4.80;100.00;100880.81;4955906;28;20425;-80
2023/01/13 03:31:03;;;;;;;7.22;2.65;;;;;;;5.05;100.00;100915.66;4972007;28;20039;-80
2023/01/13 03:33:35;;;;;;;3.38;2.10;;;;;;;4.97;100.00;100882.81;4972041;28;20119;-81
2023/01/13 03:36:06;;;;;;;4.90;2.10;;;;;;;5.07;100.00;100916.66;4971847;28;20043;-80
2023/01/13 03:38:38;;;;;;;5.60;1.83;;;;;;;5.01;100.00;100910.34;4972067;28;20038;-79
2023/01/13 03:41:16;;;;;;;3.33;2.03;;;;;;;4.90;100.00;100915.53;4971941;28;20093;-80
2023/01/13 03:46:48;;;;;;;3.55;2.25;;;;;;;4.74;100.00;100919.63;4971705;28;20084;-81
2023/01/13 03:49:18;;;;;;;2.53;2.00;;;;;;;4.72;100.00;100925.44;4971255;28;20126;-81
2023/01/13 03:51:47;;;;;;;3.00;1.52;;;;;;;4.68;100.00;100927.75;4971030;28;20039;-81
2023/01/13 03:54:15;;;;;;;2.78;1.65;;;;;;;4.47;100.00;100908.41;4971547;28;20037;-81
2023/01/13 03:56:46;;;;;;;4.22;2.15;;;;;;;4.50;100.00;100916.31;4971444;28;20039;-80
2023/01/13 03:59:19;;;;;;;2.58;1.65;;;;;;;4.48;100.00;100907.63;4955278;28;20041;-78
2023/01/13 04:01:55;;;;;;;2.55;1.83;;;;;;;4.61;100.00;100933.25;4975263;28;20049;-77
2023/01/13 04:04:28;;;;;;;2.03;1.40;;;;;;;4.63;100.00;100934.22;4993534;28;20416;-80
2023/01/13 04:07:08;;;;;;;4.57;2.90;;;;;;;4.23;100.00;100865.03;4999123;28;20038;-80
2023/01/13 04:09:36;;;;;;;;;;;;;;;4.67;100.00;100940.44;5013454;28;20392;-80
2023/01/13 04:15:16;;;;;;;6.57;2.45;;;;;;;4.51;100.00;100933.41;4990929;28;20041;-81
2023/01/13 04:17:41;;;;;;;2.95;2.15;;;;;;;4.56;100.00;100931.16;4990718;28;20117;-81
2023/01/13 04:20:08;;;;;;;3.72;2.40;;;;;;;4.50;100.00;100908.63;4990688;28;20608;-82
2023/01/13 04:22:33;;;;;;;3.13;2.30;;;;;;;4.45;100.00;100899.72;4990849;28;20101;-81
2023/01/13 04:24:58;;;;;;;4.47;2.10;;;;;;;4.73;100.00;100945.97;4990515;28;20451;-82
2023/01/13 04:27:24;;;;;;;3.05;2.13;;;;;;;4.88;100.00;100965.72;4974032;28;20037;-81
2023/01/13 04:29:49;;;;;;;2.95;1.95;;;;;;;4.85;100.00;100951.94;4990422;28;20038;-82
2023/01/13 04:32:15;;;;;;;4.75;2.55;;;;;;;4.96;100.00;100967.13;4974083;28;20026;-81
2023/01/13 04:34:40;;;;;;;3.97;2.10;;;;;;;4.99;100.00;100968.22;4990297;28;20043;-81
2023/01/13 04:37:06;;;;;;;6.10;2.67;;;;;;;4.41;100.00;100862.88;4990374;28;20030;-80
2023/01/13 04:39:31;;;;;;;5.53;2.60;;;;;;;4.98;100.00;100965.56;4990255;28;20038;-81
2023/01/13 04:41:56;;;;;;;9.27;2.80;;;;;;;4.66;100.00;100914.00;4990150;28;20096;-79
2023/01/13 04:44:22;;;;;;;9.13;2.58;;;;;;;4.94;100.00;100955.91;4990240;28;20145;-81
2023/01/13 04:46:47;;;;;;;8.55;2.70;;;;;;;4.75;100.00;100935.84;4997561;28;20054;-81
2023/01/13 04:49:13;;;;;;;11.63;2.97;;;;;;;4.83;100.00;100965.41;4992564;28;20084;-81
2023/01/13 04:51:38;;;;;;;4.38;2.35;;;;;;;4.78;100.00;100971.88;4991378;28;20408;-80
2023/01/13 04:54:04;;;;;;;4.32;2.42;;;;;;;4.52;100.00;100940.28;4991136;28;20030;-80
2023/01/13 04:56:29;;;;;;;9.20;2.50;;;;;;;4.64;100.00;100961.59;4992367;28;20030;-77
2023/01/13 04:58:55;;;;;;;6.18;2.75;;;;;;;4.42;100.00;100918.31;4992230;28;20038;-76
2023/01/13 05:01:20;;;;;;;4.60;2.70;;;;;;;4.67;100.00;100961.81;4992404;28;20042;-77
2023/01/13 05:03:46;;;;;;;7.85;3.05;;;;;;;4.54;100.00;100946.41;4992199;28;20026;-79
2023/01/13 05:06:12;;;;;;;5.25;2.95;;;;;;;4.70;100.00;100976.47;4992454;28;20439;-79
2023/01/13 05:08:40;;;;;;;4.63;2.58;;;;;;;4.65;100.00;100965.94;4992026;28;20022;-79
2023/01/13 05:16:58;;;;;;;5.18;2.95;;;;;;;4.67;100.00;100961.81;4991961;28;20038;-79
2023/01/13 05:19:18;;;;;;;7.45;3.20;;;;;;;4.50;100.00;100906.06;4991964;28;20033;-80
2023/01/13 05:27:11;;;;;;;7.88;3.17;;;;;;;4.42;100.00;100882.53;4991792;28;20077;-78
2023/01/13 05:29:37;;;;;;;4.78;3.22;;;;;;;4.93;100.00;100960.13;4991586;28;20459;-78
2023/01/13 05:32:05;;;;;;;5.53;3.30;;;;;;;5.10;100.00;100978.31;4991901;28;20030;-77
2023/01/13 05:34:31;;;;;;;8.25;3.38;;;;;;;5.02;100.00;100986.34;4991409;28;20040;-77
2023/01/13 05:36:56;;;;;;;6.45;3.15;;;;;;;5.04;100.00;100983.00;4991853;28;20105;-77
2023/01/13 05:39:22;;;;;;;5.80;2.90;;;;;;;4.95;100.00;100981.59;4991933;28;20117;-76
2023/01/13 05:44:31;;;;;;;4.70;3.00;;;;;;;4.81;100.00;100979.75;5001342;28;20037;-79
2023/01/13 05:46:57;;;;;;;5.88;2.72;;;;;;;4.88;100.00;100989.63;5019593;28;20057;-79
2023/01/13 05:49:22;;;;;;;5.20;2.47;;;;;;;4.91;100.00;100983.84;5005105;28;20052;-80
2023/01/13 05:51:48;;;;;;;4.97;2.72;;;;;;;4.80;100.00;100981.44;5018224;28;20116;-79
2023/01/13 05:54:13;;;;;;;5.40;2.75;;;;;;;4.68;100.00;100978.91;5006582;28;20646;-78
2023/01/13 05:56:39;;;;;;;3.72;2.42;;;;;;;4.70;100.00;100972.25;5020278;28;20034;-78
2023/01/13 05:59:04;;;;;;;4.30;2.70;;;;;;;4.89;100.00;100998.22;5030582;28;20083;-78
2023/01/13 06:01:29;;;;;;;4.78;2.83;;;;;;;4.53;100.00;100927.59;5030623;28;20029;-78
2023/01/13 06:03:55;;;;;;;4.10;2.63;;;;;;;4.84;100.00;100974.88;5030524;28;20041;-77
2023/01/13 06:06:20;;;;;;;4.93;2.88;;;;;;;5.01;100.00;100999.03;5030852;28;20029;-77
2023/01/13 06:08:46;;;;;;;5.50;2.78;;;;;;;4.67;100.00;100946.47;5030663;28;20039;-78
2023/01/13 06:11:11;;;;;;;4.50;2.90;;;;;;;5.08;100.00;100995.22;5030730;28;20041;-78
2023/01/13 06:13:36;;;;;;;5.50;2.95;;;;;;;4.95;100.00;100978.16;5029715;28;20033;-78
2023/01/13 06:16:02;;;;;;;3.88;2.63;;;;;;;4.94;100.00;100992.59;5029305;28;20057;-78
2023/01/13 06:18:27;;;;;;;5.85;2.63;;;;;;;5.02;100.00;101011.03;5030678;28;20483;-78
2023/01/13 06:20:53;;;;;;;4.28;2.55;;;;;;;4.89;100.00;100998.22;5030557;28;20033;-78
2023/01/13 06:23:18;;;;;;;4.40;2.72;;;;;;;4.06;100.00;100856.19;5030900;28;20083;-77
2023/01/13 06:26:14;;;;;;;5.10;3.15;;;;;;;4.85;100.00;101008.22;5030412;28;20018;-78
2023/01/13 06:28:40;;;;;;;6.00;3.20;;;;;;;4.59;100.00;100987.66;5029041;28;20037;-78
2023/01/13 06:31:07;;;;;;;6.45;3.75;;;;;;;4.73;100.00;101014.16;5030675;28;20376;-78
2023/01/13 06:33:41;;;;;;;7.13;3.97;;;;;;;4.78;100.00;101029.03;5030816;28;20022;-77
2023/01/13 06:36:20;;;;;;;7.68;3.55;;;;;;;4.42;100.00;100956.66;5030356;28;20037;-77
2023/01/13 06:38:50;;;;;;;5.43;3.33;;;;;;;4.54;100.00;100992.44;5030386;28;20641;-79
2023/01/13 06:43:13;;;;;;;5.25;3.50;;;;;;;4.63;100.00;101021.19;5030367;28;20112;-78
2023/01/13 06:44:03;;;;;;;7.07;3.45;;;;;;;3.51;100.00;100843.00;5030187;28;20026;-77
2023/01/13 06:46:28;;;;;;;7.82;3.10;;;;;;;4.42;100.00;101010.34;5030806;28;20060;-78
2023/01/13 06:48:53;;;;;;;6.85;3.50;;;;;;;4.32;100.00;100998.56;5030286;28;20453;-78
2023/01/13 06:51:19;;;;;;;7.45;3.47;;;;;;;4.35;100.00;101003.91;5029183;28;20550;-77
2023/01/13 06:53:44;;;;;;;4.97;2.92;;;;;;;4.47;100.00;101015.78;5019383;28;20034;-77
2023/01/13 06:56:09;;;;;;;5.95;3.00;;;;;;;4.44;100.00;101008.78;5006221;28;20026;-75
2023/01/13 06:58:35;;;;;;;4.95;3.00;;;;;;;4.02;100.00;100929.19;5003268;28;20515;-79
2023/01/13 07:01:00;;;;;;;4.80;3.30;;;;;;;4.53;100.00;101011.09;5009991;28;20026;-78
2023/01/13 07:03:26;;;;;;;5.05;3.22;;;;;;;4.63;100.00;101013.50;5010159;28;20029;-80
2023/01/13 07:05:53;;;;;;;8.98;3.42;;;;;;;4.32;100.00;100961.91;5009960;28;20031;-81
2023/01/13 07:08:19;;;;;;;4.88;3.08;;;;;;;4.77;100.00;101039.16;5009359;28;20080;-78
2023/01/13 07:10:46;;;;;;;4.65;3.13;;;;;;;4.63;100.00;101025.44;5009826;28;20034;-79
2023/01/13 07:15:57;;;;;;;4.47;3.50;;;;;;;4.60;100.00;101002.19;5010145;28;20080;-81
2023/01/13 07:18:23;;;;;;;5.63;3.75;;;;;;;4.74;100.00;101021.94;5009825;28;20041;-77
2023/01/13 07:20:56;;;;;;;6.70;4.53;;;;;;;4.74;100.00;101031.28;4990685;28;20038;-79
2023/01/13 07:23:21;;;;;;;8.43;4.30;;;;;;;4.85;100.00;101038.03;4998285;28;20041;-81
2023/01/13 07:25:47;;;;;;;7.65;5.20;;;;;;;4.89;100.00;101039.16;5011327;28;20030;-82
2023/01/13 07:28:13;;;;;;;9.52;6.82;;;;;;;5.06;100.00;101055.63;5012247;28;20548;-81
2023/01/13 07:30:38;;;;;;;6.75;4.60;;;;;;;5.09;100.00;101051.63;4992277;28;20060;-79
2023/01/13 07:33:04;;;;;;;8.65;5.32;;;;;;;4.89;100.00;101029.78;4993890;28;20496;-79
2023/01/13 07:35:29;;;;;;;6.97;5.07;;;;;;;5.10;100.00;101060.19;4993920;28;20030;-79
2023/01/13 07:37:56;;;;;;;7.18;5.10;;;;;;;4.33;100.00;100930.47;4993850;28;20041;-78
2023/01/13 07:40:21;;;;;;;8.30;5.05;;;;;;;4.98;100.00;101056.00;4993796;28;20030;-79
2023/01/13 07:45:31;;;;;;;8.88;5.55;;;;;;;4.92;100.00;101065.84;4993784;28;20073;-79
2023/01/13 07:47:56;;;;;;;8.35;5.60;;;;;;;4.78;100.00;101023.91;4993272;28;20489;-79
2023/01/13 07:50:22;;;;;;;9.73;5.78;;;;;;;5.04;100.00;101058.09;4993637;28;20030;-81
2023/01/13 07:52:49;;;;;;;8.50;5.20;;;;;;;4.81;100.00;101007.88;4993634;28;20037;-78
2023/01/13 07:55:14;;;;;;;9.48;6.30;;;;;;;5.12;100.00;101063.72;4993561;28;20030;-79
2023/01/13 07:57:40;;;;;;;8.45;5.53;;;;;;;5.11;100.00;101055.19;4992288;28;20038;-79
2023/01/13 08:00:06;;;;;;;9.13;5.43;;;;;;;4.60;100.00;100969.84;4993276;28;20038;-82
2023/01/13 08:02:31;;;;;;;10.48;6.40;;;;;;;4.94;100.00;101033.53;4993029;28;20485;-81
2023/01/13 08:04:57;;;;;;;8.77;5.63;;;;;;;5.19;100.00;101073.63;4993393;28;20109;-82
2023/01/13 08:07:22;;;;;;;10.43;7.10;;;;;;;4.27;100.00;100902.81;4991827;28;20026;-81
2023/01/13 08:09:48;;;;;;;9.13;5.65;;;;;;;4.47;100.00;100933.97;4993947;28;20030;-85
2023/01/13 08:14:57;;;;;;;8.52;5.10;;;;;;;5.29;100.00;101070.88;5012863;28;20040;-81
2023/01/13 08:17:23;;;;;;;7.55;5.18;;;;;;;5.30;100.00;101069.22;5012494;28;20053;-82
2023/01/13 08:19:48;;;;;;;10.70;7.65;;;;;;;5.21;100.00;101051.59;5012751;28;20030;-81
2023/01/13 08:22:14;;;;;;;10.15;5.47;;;;;;;5.28;100.00;101060.56;5011365;28;20033;-82
2023/01/13 08:24:39;;;;;;;8.98;5.93;;;;;;;5.14;100.00;101039.16;5011507;28;20044;-82
2023/01/13 08:27:05;;;;;;;9.25;5.28;;;;;;;5.27;100.00;101069.91;5012470;28;20030;-81
2023/01/13 08:29:30;;;;;;;7.88;5.28;;;;;;;5.02;100.00;101023.81;5012322;28;20026;-81
2023/01/13 08:31:55;;;;;;;8.35;5.93;;;;;;;5.19;100.00;101051.44;5011178;28;20038;-81
2023/01/13 08:34:21;;;;;;;9.30;6.28;;;;;;;4.72;100.00;100972.34;5012869;28;20038;-81
2023/01/13 08:36:49;;;;;;;11.95;7.07;;;;;;;4.79;100.00;101010.34;5011939;28;20073;-81
2023/01/13 08:39:14;;;;;;;18.40;9.25;;;;;;;5.14;100.00;101083.53;5011272;28;20653;-80
2023/01/13 08:41:55;;;;;;;25.70;12.15;;;;;;;4.99;100.00;101068.00;5012032;28;20037;-81
2023/01/13 08:44:22;;;;;;;12.82;7.55;;;;;;;5.09;100.00;101094.25;4989865;28;20041;-79
2023/01/13 08:46:47;;;;;;;12.27;7.28;;;;;;;4.87;100.00;101074.84;4990158;28;20531;-80
2023/01/13 08:49:15;;;;;;;14.07;7.05;;;;;;;4.13;100.00;100935.06;4989965;28;20558;-81
2023/01/13 08:51:40;;;;;;;14.05;7.30;;;;;;;4.92;100.00;101064.94;4990128;28;20037;-80
2023/01/13 08:54:06;;;;;;;13.10;7.07;;;;;;;4.43;100.00;100976.34;4989984;28;20042;-79
2023/01/13 08:56:31;;;;;;;11.73;7.32;;;;;;;5.10;100.00;101085.78;4973655;28;20203;-79
2023/01/13 08:58:57;;;;;;;9.57;5.85;;;;;;;5.10;100.00;101091.78;4989757;28;20540;-80
2023/01/13 09:01:25;;;;;;;11.15;6.25;;;;;;;4.51;100.00;100994.75;4989682;28;20455;-79
2023/01/13 09:03:51;;;;;;;11.98;6.63;;;;;;;4.57;100.00;100984.97;4987093;28;20047;-79
2023/01/13 09:06:16;;;;;;;11.98;6.78;;;;;;;5.08;100.00;101061.75;4989592;28;20225;-79
2023/01/13 09:08:43;;;;;;;11.63;5.45;;;;;;;5.26;100.00;101088.63;4989394;28;20511;-79
2023/01/13 09:14:02;;;;;;;9.15;4.97;;;;;;;4.60;100.00;100980.06;4989712;28;20136;-79
2023/01/13 09:16:28;;;;;;;8.57;4.82;;;;;;;4.79;100.00;101012.03;5010439;28;20077;-78
2023/01/13 09:18:53;;;;;;;7.43;4.95;;;;;;;5.19;100.00;101073.63;5011330;28;20033;-79
2023/01/13 09:21:19;;;;;;;6.35;4.53;;;;;;;4.94;100.00;101030.09;5011632;28;20616;-79
2023/01/13 09:23:45;;;;;;;7.75;4.70;;;;;;;4.98;100.00;101024.41;5011203;28;20463;-78
2023/01/13 09:26:20;;;;;;;6.72;4.30;;;;;;;5.16;100.00;101052.94;5011334;28;20034;-78
2023/01/13 09:28:45;;;;;;;6.10;4.03;;;;;;;3.90;100.00;100826.19;5010126;28;20491;-79
2023/01/13 09:31:10;;;;;;;6.75;4.20;;;;;;;5.39;100.00;101071.53;5011095;28;20026;-78
2023/01/13 09:36:20;;;;;;;21.33;13.43;;;;;;;5.52;100.00;101061.34;5011091;28;20037;-80
2023/01/13 09:38:48;;;;;;;16.52;11.05;;;;;;;4.78;100.00;100921.59;5010801;28;20034;-80
2023/01/13 09:44:32;;;;;;;6.68;4.53;;;;;;;5.79;100.00;101061.38;5011098;28;20041;-79
2023/01/13 09:47:03;;;;;;;5.35;3.95;;;;;;;5.76;100.00;101061.19;4969129;28;20058;-78
2023/01/13 09:49:36;;;;;;;7.70;4.32;;;;;;;5.70;100.00;101046.28;4968796;28;20039;-77
2023/01/13 09:52:18;;;;;;;7.50;4.07;;;;;;;5.60;100.00;101056.72;4969356;28;20489;-81
2023/01/13 09:54:59;;;;;;;6.00;3.70;;;;;;;5.18;100.00;100982.25;4969492;28;20041;-81
2023/01/13 09:57:27;;;;;;;6.38;4.10;;;;;;;5.45;100.00;101038.66;4953158;28;20138;-81
2023/01/13 09:59:52;;;;;;;5.90;3.05;;;;;;;5.49;100.00;101056.88;4969847;28;20113;-81
2023/01/13 10:03:09;;;;;;;5.90;3.53;;;;;;;5.44;100.00;101049.69;4969461;28;20034;-82
2023/01/13 10:05:43;;;;;;;11.80;3.63;;;;;;;5.35;100.00;101055.06;4911673;29;20124;-78
2023/01/13 10:08:25;;;;;;;5.30;3.75;;;;;;;5.35;100.00;101048.25;4911892;29;20182;-82
2023/01/13 10:10:57;;;;;;;6.88;3.53;;;;;;;5.05;100.00;100992.44;4912015;29;20131;-83
2023/01/13 10:13:25;;;;;;;5.45;3.67;;;;;;;5.37;100.00;101030.47;4912068;29;20059;-81
2023/01/13 10:15:58;;;;;;;8.75;4.32;;;;;;;4.80;100.00;100929.41;4911722;29;20052;-81
2023/01/13 10:18:58;;;;;;;5.35;3.70;;;;;;;5.01;100.00;100961.53;4911818;29;20198;-81
2023/01/13 10:21:49;;;;;;;4.93;3.50;;;;;;;5.35;100.00;101021.78;4895850;29;20043;-81
2023/01/13 10:24:28;;;;;;;5.82;3.90;;;;;;;5.23;100.00;101013.28;4922539;29;20087;-80
2023/01/13 10:27:11;;;;;;;5.20;2.90;;;;;;;5.24;100.00;101007.38;4913892;29;20454;-80
2023/01/13 10:29:36;;;;;;;7.93;5.03;;;;;;;5.23;100.00;101006.47;4928791;29;20094;-80
2023/01/13 10:32:02;;;;;;;10.35;6.80;;;;;;;5.43;100.00;101014.59;4930618;29;20526;-79
2023/01/13 10:34:28;;;;;;;9.13;5.75;;;;;;;5.54;100.00;101003.41;4914731;29;20103;-79
2023/01/13 10:37:04;;;;;;;7.20;4.50;;;;;;;5.59;100.00;101008.81;4938665;28;20046;-79
2023/01/13 10:39:51;;;;;;;6.97;3.90;;;;;;;5.37;100.00;100992.06;4969320;28;20031;-79
2023/01/13 10:42:20;;;;;;;5.82;3.72;;;;;;;4.95;100.00;100917.63;4988572;28;20046;-79
2023/01/13 10:44:57;;;;;;;5.25;3.60;;;;;;;5.44;100.00;101011.25;4988296;28;20129;-78
2023/01/13 10:47:26;;;;;;;5.55;3.85;;;;;;;5.50;100.00;101006.56;4988291;28;20436;-77
2023/01/13 10:50:08;;;;;;;15.88;5.82;;;;;;;5.47;100.00;100999.56;4988541;28;20069;-81
2023/01/13 10:52:38;;;;;;;7.43;4.57;;;;;;;5.60;100.00;101006.34;4988517;28;20042;-82
2023/01/13 10:55:24;;;;;;;5.50;3.75;;;;;;;5.03;100.00;100907.91;4988297;28;20117;-78
2023/01/13 10:57:50;;;;;;;6.78;4.63;;;;;;;5.55;100.00;100999.19;4971927;28;20117;-78
2023/01/13 11:00:33;;;;;;;5.90;4.15;;;;;;;5.56;100.00;101001.84;5005765;28;20123;-75
2023/01/13 11:03:23;;;;;;;6.15;3.83;;;;;;;5.47;100.00;100981.63;5000873;28;20034;-85
2023/01/13 11:05:54;;;;;;;6.25;4.05;;;;;;;5.57;100.00;100984.78;4992971;28;20037;-79
2023/01/13 11:08:28;;;;;;;6.22;4.22;;;;;;;5.53;100.00;100996.50;4992033;28;20034;-78
2023/01/13 11:10:56;;;;;;;10.55;4.93;;;;;;;5.22;100.00;100927.03;4992257;28;20547;-77
2023/01/13 11:14:31;;;;;;;5.72;3.58;;;;;;;5.33;100.00;100932.06;4992358;28;20038;-77
2023/01/13 11:16:27;;;;;;;5.47;3.45;;;;;;;5.52;100.00;100969.13;4992862;28;20019;-75
2023/01/13 11:19:01;;;;;;;8.27;3.88;;;;;;;5.73;100.00;100995.25;4993295;28;20480;-83
2023/01/13 11:21:39;;;;;;;5.13;2.90;;;;;;;5.67;100.00;100962.44;4993395;28;20030;-74
2023/01/13 11:24:39;;;;;;;4.85;3.53;;;;;;;5.74;100.00;100968.81;5009127;28;20489;-77
2023/01/13 11:27:19;;;;;;;4.63;3.30;;;;;;;5.77;100.00;100983.50;4992858;28;20041;-74
2023/01/13 11:29:56;;;;;;;5.75;3.28;;;;;;;5.67;100.00;100959.88;4993229;28;20022;-75
2023/01/13 11:32:23;;;;;;;5.18;2.92;;;;;;;5.39;100.00;100905.97;4992643;28;20041;-77
2023/01/13 11:34:54;;;;;;;4.35;3.03;;;;;;;5.58;100.00;100943.00;4992541;28;20084;-76
2023/01/13 11:37:39;;;;;;;5.40;2.95;;;;;;;5.83;100.00;100960.84;4993051;28;20058;-80
2023/01/13 11:40:40;;;;;;;5.93;3.25;;;;;;;5.85;100.00;100964.41;4991436;28;20465;-77
2023/01/13 11:43:21;;;;;;;4.47;2.92;;;;;;;5.91;100.00;100953.66;4975555;28;20065;-83
2023/01/13 11:46:04;;;;;;;5.20;3.25;;;;;;;5.92;100.00;100958.88;4988087;28;21213;-80
2023/01/13 11:48:34;;;;;;;4.18;2.95;;;;;;;5.98;100.00;100955.81;4989198;28;20088;-77
2023/01/13 11:51:15;;;;;;;4.40;2.67;;;;;;;6.01;100.00;100956.03;4984946;28;20466;-80
2023/01/13 11:53:54;;;;;;;5.95;3.42;;;;;;;5.34;100.00;100853.59;4993882;28;20045;-80
2023/01/13 11:56:45;;;;;;;4.25;2.90;;;;;;;6.00;100.00;100933.75;4993501;28;20586;-79
2023/01/13 11:59:13;;;;;;;4.47;3.08;;;;;;;6.21;100.00;100949.59;4989194;28;20061;-77
2023/01/13 12:02:05;;;;;;;5.32;3.10;;;;;;;6.27;100.00;100955.09;4990786;28;20517;-76
2023/01/13 12:04:52;;;;;;;4.35;3.22;;;;;;;6.20;100.00;100932.44;4992186;28;20045;-78
2023/01/13 12:07:39;;;;;;;3.85;2.72;;;;;;;6.29;100.00;100958.66;4991114;28;20566;-80
2023/01/13 12:10:27;;;;;;;3.63;2.50;;;;;;;6.40;100.00;100941.34;4989623;28;20536;-76
2023/01/13 12:13:01;;;;;;;4.05;2.63;;;;;;;6.32;100.00;100946.03;4992008;28;20053;-75
2023/01/13 12:15:41;;;;;;;5.85;2.72;;;;;;;6.33;100.00;100928.97;4994280;28;20045;-77
2023/01/13 12:18:34;;;;;;;4.80;3.08;;;;;;;6.42;100.00;100937.22;4997015;28;20045;-79
2023/01/13 12:21:02;;;;;;;5.50;3.03;;;;;;;6.46;100.00;100939.16;5005095;28;20027;-76
2023/01/13 12:23:41;;;;;;;3.92;2.50;;;;;;;6.47;100.00;100947.78;5002942;28;20046;-79
2023/01/13 12:26:10;;;;;;;6.10;3.45;;;;;;;6.42;100.00;100952.59;4995250;28;20507;-79
2023/01/13 12:28:44;;;;;;;6.60;5.40;;;;;;;6.46;100.00;100943.41;5008422;28;20480;-79
2023/01/13 12:31:17;;;;;;;5.68;3.90;;;;;;;6.39;100.00;100923.31;5012564;28;20053;-78